createdAt,value
2023-01-09T00:00:52.671Z,1.20
2023-01-09T00:10:54.015Z,2.70
2023-01-09T00:20:55.773Z,1.70
2023-01-09T00:31:02.103Z,1.63
2023-01-09T00:41:06.435Z,1.73
2023-01-09T00:51:08.417Z,1.40
2023-01-09T01:01:09.951Z,1.70
2023-01-09T01:11:13.022Z,1.10
2023-01-09T01:21:15.221Z,1.00
2023-01-09T01:31:18.466Z,0.80
2023-01-09T01:41:29.511Z,0.87
2023-01-09T01:51:35.676Z,0.80
2023-01-09T02:01:41.162Z,0.68
2023-01-09T02:11:47.549Z,0.90
2023-01-09T02:22:00.755Z,0.70
2023-01-09T02:32:23.676Z,0.60
2023-01-09T02:42:27.023Z,0.40
2023-01-09T02:52:50.192Z,0.77
2023-01-09T03:03:24.547Z,0.70
2023-01-09T03:13:32.272Z,1.10
2023-01-09T03:23:46.909Z,1.50
2023-01-09T03:33:48.258Z,1.37
2023-01-09T03:43:49.653Z,1.23
2023-01-09T03:53:50.977Z,1.40
2023-01-09T04:03:52.523Z,1.30
2023-01-09T04:13:53.896Z,1.30
2023-01-09T04:23:55.379Z,1.60
2023-01-09T04:33:56.874Z,1.63
2023-01-09T04:43:58.251Z,1.80
2023-01-09T04:53:59.631Z,1.63
2023-01-09T05:04:01.279Z,1.73
2023-01-09T05:14:02.834Z,1.20
2023-01-09T05:24:04.484Z,1.60
2023-01-09T05:34:05.974Z,1.80
2023-01-09T05:44:07.499Z,2.13
2023-01-09T05:54:09.109Z,2.30
2023-01-09T06:04:10.552Z,1.43
2023-01-09T06:14:11.949Z,2.50
2023-01-09T06:24:13.427Z,2.35
2023-01-09T06:34:14.941Z,1.42
2023-01-09T06:44:16.405Z,1.80
2023-01-09T06:54:18.872Z,1.60
2023-01-09T07:04:21.983Z,1.70
2023-01-09T07:14:23.538Z,1.43
2023-01-09T07:24:25.034Z,1.50
2023-01-09T07:34:26.488Z,1.25
2023-01-09T07:44:28.006Z,0.80
2023-01-09T07:54:29.340Z,1.70
2023-01-09T08:04:31.138Z,2.05
2023-01-09T08:14:32.737Z,1.08
2023-01-09T08:24:34.349Z,3.10
2023-01-09T08:34:35.941Z,0.80
2023-01-09T08:44:56.062Z,1.42
2023-01-09T08:54:57.583Z,2.70
2023-01-09T09:04:59.405Z,1.83
2023-01-09T09:15:12.834Z,1.33
2023-01-09T09:25:15.474Z,1.37
2023-01-09T09:35:18.095Z,2.03
2023-01-09T09:45:50.859Z,1.65
2023-01-09T09:55:52.969Z,1.00
2023-01-09T10:05:55.056Z,1.20
2023-01-09T10:16:25.165Z,1.30
2023-01-09T10:26:38.215Z,1.08
2023-01-09T10:37:17.281Z,1.03
2023-01-09T10:47:25.838Z,1.37
2023-01-09T10:57:43.846Z,1.50
2023-01-09T11:07:49.440Z,1.10
2023-01-09T11:17:52.015Z,1.20
2023-01-09T11:28:05.103Z,1.30
2023-01-09T11:38:16.899Z,1.90
2023-01-09T11:48:31.953Z,2.60
2023-01-09T11:58:35.264Z,1.97
2023-01-09T12:08:49.100Z,2.17
2023-01-09T12:18:53.214Z,2.07
2023-01-09T12:29:33.947Z,1.50
2023-01-09T12:39:50.340Z,1.88
2023-01-09T12:50:09.320Z,1.57
2023-01-09T13:00:35.024Z,1.40
2023-01-09T13:10:41.998Z,1.70
2023-01-09T13:20:52.884Z,1.67
2023-01-09T13:31:00.593Z,1.70
2023-01-09T13:41:31.890Z,2.00
2023-01-09T13:51:57.816Z,1.98
2023-01-09T14:01:59.386Z,2.07
2023-01-09T14:12:07.860Z,2.40
2023-01-09T14:22:26.162Z,2.53
2023-01-09T14:32:29.764Z,2.83
2023-01-09T14:42:34.362Z,1.97
2023-01-09T14:52:48.261Z,2.38
2023-01-09T15:02:53.149Z,1.50
2023-01-09T15:12:57.473Z,2.07
2023-01-09T15:23:04.067Z,1.73
2023-01-09T15:33:11.562Z,2.55
2023-01-09T15:43:14.706Z,2.27
2023-01-09T15:53:19.963Z,2.70
2023-01-09T16:03:23.423Z,2.75
2023-01-09T16:13:27.769Z,3.00
2023-01-09T16:23:30.585Z,2.90
2023-01-09T16:33:32.436Z,3.25
2023-01-09T16:43:33.924Z,3.20
2023-01-09T16:53:35.503Z,3.90
2023-01-09T17:03:36.918Z,3.10
2023-01-09T17:13:38.369Z,2.85
2023-01-09T17:23:39.915Z,3.17
2023-01-09T17:33:41.786Z,2.93
2023-01-09T17:43:45.050Z,2.20
2023-01-09T17:53:48.247Z,2.67
2023-01-09T18:03:50.634Z,3.50
2023-01-09T18:13:54.110Z,3.67
2023-01-09T18:23:59.917Z,4.60
2023-01-09T18:34:05.449Z,3.93
2023-01-09T18:44:06.927Z,3.23
2023-01-09T18:54:08.407Z,4.13
2023-01-09T19:04:10.008Z,5.20
2023-01-09T19:14:11.920Z,5.60
2023-01-09T19:24:13.436Z,5.72
2023-01-09T19:34:16.085Z,5.63
2023-01-09T19:44:18.897Z,4.87
2023-01-09T19:54:20.341Z,5.05
2023-01-09T20:04:21.791Z,4.93
2023-01-09T20:14:23.342Z,3.50
2023-01-09T20:24:24.904Z,4.90
2023-01-09T20:34:26.848Z,2.72
2023-01-09T20:44:28.358Z,3.37
2023-01-09T20:54:29.833Z,3.87
2023-01-09T21:04:31.512Z,4.03
2023-01-09T21:14:33.060Z,4.50
2023-01-09T21:24:34.563Z,4.13
2023-01-09T21:34:36.241Z,4.40
2023-01-09T21:44:56.607Z,4.38
2023-01-09T21:54:58.243Z,2.87
2023-01-09T22:05:00.359Z,2.00
2023-01-09T22:15:01.877Z,2.80
2023-01-09T22:25:04.150Z,3.50
2023-01-09T22:35:06.385Z,2.27
2023-01-09T22:45:08.205Z,3.30
2023-01-09T22:55:10.033Z,3.00
2023-01-09T23:05:11.712Z,4.40
2023-01-09T23:15:13.294Z,4.82
2023-01-09T23:25:15.684Z,4.22
2023-01-09T23:35:17.247Z,4.07
2023-01-09T23:45:19.030Z,4.50
2023-01-09T23:55:20.427Z,5.05
